Time;durP1;ratioP1;P1;durP2;ratioP2;P2;SDS_P1;SDS_P2;PMS_P1;PMS_P2;Temp;Humidity;BMP_temperature;BMP_pressure;BME280_temperature;BME280_humidity;BME280_pressure;Samples;Min_cycle;Max_cycle;Signal;HPM_P1;HPM_P2
2022/03/15 00:01:23;;;;;;;4.2;3.3;;;;;;;4.2;73.96973;947.3854;;;;
2022/03/15 00:03:49;;;;;;;4.2;3.2;;;;;;;4.12;74.30469;947.3508;;;;
2022/03/15 00:06:34;;;;;;;5.9;3.4;;;;;;;4.06;74.57617;947.4495;;;;
2022/03/15 00:09:08;;;;;;;4.7;3;;;;;;;4.07;74.20703;947.3768;;;;
2022/03/15 00:11:49;;;;;;;6.2;3.2;;;;;;;3.98;74.67578;947.4347;;;;
2022/03/15 00:14:28;;;;;;;4.6;3.3;;;;;;;4.1;74.06641;947.3423;;;;
2022/03/15 00:16:57;;;;;;;5.4;3.5;;;;;;;4.16;73.79688;947.3181;;;;
2022/03/15 00:19:35;;;;;;;4.8;3.4;;;;;;;4.17;73.60547;947.2783;;;;
2022/03/15 00:22:09;;;;;;;6;3.7;;;;;;;4.08;73.97363;947.3309;;;;
2022/03/15 00:24:43;;;;;;;6.4;3.9;;;;;;;4.12;73.75488;947.3417;;;;
2022/03/15 00:27:12;;;;;;;4.7;3.5;;;;;;;4.15;73.47852;947.2272;;;;
2022/03/15 00:29:48;;;;;;;4.4;3.4;;;;;;;4.11;73.39355;947.3242;;;;
2022/03/15 00:32:17;;;;;;;3.5;3;;;;;;;3.98;73.78809;947.3345;;;;
2022/03/15 00:34:49;;;;;;;4.7;3.2;;;;;;;3.98;73.68652;947.2967;;;;
2022/03/15 00:37:25;;;;;;;3.6;3.2;;;;;;;3.93;73.84375;947.3459;;;;
2022/03/15 00:39:58;;;;;;;5.7;3.7;;;;;;;3.87;74.03516;947.2201;;;;
2022/03/15 00:42:33;;;;;;;4.5;3.3;;;;;;;3.86;73.88965;947.2491;;;;
2022/03/15 00:45:06;;;;;;;4.3;3.3;;;;;;;3.61;74.56445;947.2968;;;;
2022/03/15 00:47:36;;;;;;;4.8;3;;;;;;;3.57;75.01855;947.1898;;;;
2022/03/15 00:50:06;;;;;;;6.6;3.7;;;;;;;3.74;74.37305;947.1922;;;;
2022/03/15 00:52:34;;;;;;;5.7;3.8;;;;;;;3.85;73.52832;947.2405;;;;
2022/03/15 00:55:01;;;;;;;5.9;3.8;;;;;;;3.98;72.77441;947.2626;;;;
2022/03/15 00:57:26;;;;;;;5.1;3.6;;;;;;;4.05;72.41699;947.0151;;;;
2022/03/15 00:59:55;;;;;;;4;3.1;;;;;;;4.25;71.44922;947.1376;;;;
2022/03/15 01:02:19;;;;;;;3.8;3;;;;;;;4.32;71.11133;947.079;;;;
2022/03/15 01:04:47;;;;;;;3.9;3;;;;;;;4.3;71.34277;947.1065;;;;
2022/03/15 01:07:12;;;;;;;4.3;3;;;;;;;4.26;71.24707;947.0818;;;;
2022/03/15 01:10:01;;;;;;;4.3;3.1;;;;;;;4.13;71.4502;947.0661;;;;
2022/03/15 01:12:29;;;;;;;4.4;3.4;;;;;;;4.06;71.78711;947.0019;;;;
2022/03/15 01:14:54;;;;;;;5.8;3.2;;;;;;;3.99;72.06738;947.1125;;;;
2022/03/15 01:17:25;;;;;;;4.1;2.7;;;;;;;4.1;71.34277;946.9707;;;;
2022/03/15 01:19:52;;;;;;;4.1;3.2;;;;;;;4.22;70.71191;946.9888;;;;
2022/03/15 01:22:17;;;;;;;5.1;3.4;;;;;;;4.34;70.46094;947.0532;;;;
2022/03/15 01:24:44;;;;;;;5.1;3.9;;;;;;;4.41;69.92188;947.0208;;;;
2022/03/15 01:27:09;;;;;;;7.2;5.2;;;;;;;4.36;70.09277;947.032;;;;
2022/03/15 01:29:35;;;;;;;6.9;4.7;;;;;;;4.28;70.39453;947.0181;;;;
2022/03/15 01:32:00;;;;;;;7.7;4.3;;;;;;;4.34;69.96582;946.9612;;;;
2022/03/15 01:34:30;;;;;;;9.2;5.3;;;;;;;4.57;69.27246;946.9911;;;;
2022/03/15 01:36:55;;;;;;;7.2;4.7;;;;;;;4.63;69.23633;947.0002;;;;
2022/03/15 01:39:21;;;;;;;6.6;4.2;;;;;;;4.65;68.25;946.9667;;;;
2022/03/15 01:41:46;;;;;;;6.7;4.2;;;;;;;4.43;69.02441;946.9426;;;;
2022/03/15 01:44:11;;;;;;;5.9;4.3;;;;;;;4.49;69.01172;946.9549;;;;
2022/03/15 01:46:38;;;;;;;6.4;3.7;;;;;;;4.54;68.79492;946.9796;;;;
2022/03/15 01:49:03;;;;;;;6.4;4.2;;;;;;;4.59;68.88184;946.9366;;;;
2022/03/15 01:51:32;;;;;;;6.6;3.9;;;;;;;4.54;68.78418;946.8691;;;;
2022/03/15 01:54:01;;;;;;;5.1;3.9;;;;;;;4.48;69.02148;946.8938;;;;
2022/03/15 01:56:26;;;;;;;6.2;4.1;;;;;;;4.36;69.52051;946.8667;;;;
2022/03/15 01:58:51;;;;;;;5;3.7;;;;;;;4.42;69.25879;946.7679;;;;
2022/03/15 02:01:17;;;;;;;5.1;3.4;;;;;;;4.5;69.11426;946.7986;;;;
2022/03/15 02:03:44;;;;;;;5.1;3.6;;;;;;;4.53;68.97363;946.7787;;;;
2022/03/15 02:06:09;;;;;;;4.7;3.4;;;;;;;4.57;68.85645;946.7885;;;;
2022/03/15 02:08:36;;;;;;;4.9;3.6;;;;;;;4.6;68.4668;946.7676;;;;
2022/03/15 02:11:02;;;;;;;6.6;3.6;;;;;;;4.77;67.85156;946.6336;;;;
2022/03/15 02:13:29;;;;;;;4.6;3.2;;;;;;;4.68;68.09473;946.6192;;;;
2022/03/15 02:15:59;;;;;;;4.5;3.5;;;;;;;4.71;67.94336;946.5946;;;;
2022/03/15 02:18:27;;;;;;;5.8;3.5;;;;;;;4.76;67.71484;946.5897;;;;
2022/03/15 02:20:51;;;;;;;5.7;3.7;;;;;;;4.66;68.04688;946.5811;;;;
2022/03/15 02:23:20;;;;;;;4.7;3.8;;;;;;;4.69;68.14258;946.4975;;;;
2022/03/15 02:25:46;;;;;;;8.7;4.7;;;;;;;4.69;68.2207;946.4609;;;;
2022/03/15 02:28:14;;;;;;;5.9;4;;;;;;;4.68;68.42188;946.4684;;;;
2022/03/15 02:30:39;;;;;;;5.4;3.6;;;;;;;4.68;68.11914;946.4301;;;;
2022/03/15 02:33:04;;;;;;;5;3.2;;;;;;;4.66;67.50684;946.38;;;;
2022/03/15 02:35:31;;;;;;;5.3;3.4;;;;;;;4.7;66.47754;946.2999;;;;
2022/03/15 02:37:56;;;;;;;5.1;3.7;;;;;;;4.74;67.46289;946.4136;;;;
2022/03/15 02:40:24;;;;;;;5.1;3.7;;;;;;;4.84;66.08203;946.3622;;;;
2022/03/15 02:42:49;;;;;;;6.7;3.7;;;;;;;4.76;66.40723;946.2566;;;;
2022/03/15 02:45:16;;;;;;;5.8;3.7;;;;;;;4.67;66.13477;946.2672;;;;
2022/03/15 02:47:47;;;;;;;5.4;4;;;;;;;4.83;65.55078;946.1277;;;;
2022/03/15 02:50:06;;;;;;;5.8;4.2;;;;;;;4.84;65.95801;946.2036;;;;
2022/03/15 02:52:32;;;;;;;5.8;3.8;;;;;;;4.8;66.77441;946.2759;;;;
2022/03/15 02:54:58;;;;;;;6.7;4.1;;;;;;;4.66;67.48535;946.2446;;;;
2022/03/15 02:57:28;;;;;;;5.7;3.6;;;;;;;4.56;67.84082;946.247;;;;
2022/03/15 02:59:51;;;;;;;5.7;4;;;;;;;4.57;67.59473;946.27;;;;
2022/03/15 03:02:19;;;;;;;4.7;3.7;;;;;;;4.62;67.0166;946.2332;;;;
2022/03/15 03:04:44;;;;;;;4.2;3.5;;;;;;;4.78;65.76758;946.2307;;;;
2022/03/15 03:07:14;;;;;;;7.4;4.1;;;;;;;4.9;64.68457;946.2458;;;;
2022/03/15 03:09:37;;;;;;;8;3.5;;;;;;;5.12;63.36426;946.2114;;;;
2022/03/15 03:12:02;;;;;;;6.1;3.5;;;;;;;5.34;62.30078;946.145;;;;
2022/03/15 03:14:28;;;;;;;5.3;3.4;;;;;;;5.53;61.93457;946.1644;;;;
2022/03/15 03:16:56;;;;;;;4.5;3.4;;;;;;;5.4;62.64941;946.2338;;;;
2022/03/15 03:19:25;;;;;;;6.3;3.7;;;;;;;5.38;63.0752;946.2921;;;;
2022/03/15 03:21:50;;;;;;;5.8;3.8;;;;;;;5.31;63.5166;946.2947;;;;
2022/03/15 03:24:24;;;;;;;4;3.3;;;;;;;5.18;63.99316;946.2527;;;;
2022/03/15 03:26:42;;;;;;;7.3;3.6;;;;;;;5.25;63.78906;946.218;;;;
2022/03/15 03:29:11;;;;;;;4.8;3.1;;;;;;;5.22;63.7959;946.197;;;;
2022/03/15 03:31:36;;;;;;;5.4;3.4;;;;;;;5.19;63.82617;946.2642;;;;
2022/03/15 03:34:04;;;;;;;6.4;3.7;;;;;;;5.31;62.53516;946.2053;;;;
2022/03/15 03:36:30;;;;;;;10.9;4.4;;;;;;;5.32;62.39941;946.2159;;;;
2022/03/15 03:38:57;;;;;;;4.1;3.5;;;;;;;5.41;61.62402;946.2327;;;;
2022/03/15 03:41:22;;;;;;;3.7;3.1;;;;;;;5.58;61.26367;946.2143;;;;
2022/03/15 03:43:50;;;;;;;5.3;3.2;;;;;;;5.66;60.25977;946.1983;;;;
2022/03/15 03:46:16;;;;;;;4.8;3.6;;;;;;;5.66;60.94922;946.1375;;;;
2022/03/15 03:48:44;;;;;;;5.3;3.4;;;;;;;5.58;61.98633;946.1353;;;;
2022/03/15 03:51:10;;;;;;;4.7;3.3;;;;;;;5.52;62.02344;946.1394;;;;
2022/03/15 03:53:34;;;;;;;5.4;3.3;;;;;;;5.43;62.65332;946.1049;;;;
2022/03/15 03:56:00;;;;;;;13.2;4.7;;;;;;;5.44;62.67773;946.1541;;;;
2022/03/15 03:58:26;;;;;;;5.8;3.4;;;;;;;5.5;62.45996;946.2371;;;;
2022/03/15 04:02:34;;;;;;;6.7;3.9;;;;;;;5.52;62.51855;946.2079;;;;
2022/03/15 04:04:59;;;;;;;4.2;3.2;;;;;;;5.54;62.52246;946.2087;;;;
2022/03/15 04:07:24;;;;;;;7.8;3.6;;;;;;;5.63;62.12988;946.1756;;;;
2022/03/15 04:09:49;;;;;;;4;3.2;;;;;;;5.71;61.19141;946.1258;;;;
2022/03/15 04:12:21;;;;;;;6.3;3.3;;;;;;;5.76;61.00781;946.1973;;;;
2022/03/15 04:14:44;;;;;;;5.3;2.7;;;;;;;5.8;60.4043;946.2134;;;;
2022/03/15 04:17:10;;;;;;;4.6;3.3;;;;;;;5.77;60.6377;946.2953;;;;
2022/03/15 04:19:37;;;;;;;4;3;;;;;;;5.87;60.2002;946.234;;;;
2022/03/15 04:22:03;;;;;;;4.2;3.1;;;;;;;5.95;60.20996;946.2357;;;;
2022/03/15 04:24:31;;;;;;;7.7;3.9;;;;;;;5.99;60.22754;946.1978;;;;
2022/03/15 04:26:57;;;;;;;5;3.6;;;;;;;6.04;60.23535;946.231;;;;
2022/03/15 04:29:23;;;;;;;4.5;3;;;;;;;6.07;59.68555;946.2686;;;;
2022/03/15 04:31:49;;;;;;;10.1;4.1;;;;;;;6;60.12695;946.2447;;;;
2022/03/15 04:34:17;;;;;;;6.1;3.5;;;;;;;6.19;59.4082;946.2595;;;;
2022/03/15 04:36:43;;;;;;;6;3.9;;;;;;;6.3;59.25488;946.3014;;;;
2022/03/15 04:39:09;;;;;;;11.8;5.1;;;;;;;6.38;57.83984;946.2578;;;;
2022/03/15 04:41:34;;;;;;;6.3;4.1;;;;;;;6.4;57.33301;946.2228;;;;
2022/03/15 04:44:00;;;;;;;9.9;4.4;;;;;;;6.52;57.8252;946.2396;;;;
2022/03/15 04:46:25;;;;;;;4.5;3.3;;;;;;;6.56;58.21484;946.3113;;;;
2022/03/15 04:48:52;;;;;;;6.3;3.6;;;;;;;6.56;58.46387;946.287;;;;
2022/03/15 04:51:17;;;;;;;9.9;3.6;;;;;;;6.45;58.13184;946.2668;;;;
2022/03/15 04:53:41;;;;;;;5.9;3.5;;;;;;;6.49;58.47656;946.1197;;;;
2022/03/15 04:56:09;;;;;;;9.8;3.7;;;;;;;6.59;58.93164;946.128;;;;
2022/03/15 04:58:35;;;;;;;7.1;4.6;;;;;;;6.53;58.17676;946.1055;;;;
2022/03/15 05:00:59;;;;;;;6.4;3.8;;;;;;;6.64;56.89063;946.1281;;;;
2022/03/15 05:03:33;;;;;;;10.8;4.3;;;;;;;6.79;56.14063;946.1033;;;;
2022/03/15 05:06:01;;;;;;;9.6;4;;;;;;;6.78;57.43066;946.1314;;;;
2022/03/15 05:08:31;;;;;;;6.8;4.1;;;;;;;6.69;58.27734;946.1051;;;;
2022/03/15 05:11:09;;;;;;;7.8;4.1;;;;;;;6.65;58.61328;946.0635;;;;
2022/03/15 05:17:11;;;;;;;8.4;5.6;;;;;;;6.57;58.87207;946.0159;;;;
2022/03/15 05:19:38;;;;;;;14.8;6.3;;;;;;;6.63;58.92578;946.0375;;;;
2022/03/15 05:31:31;;;;;;;15.2;7.1;;;;;;;6.49;59.66309;946.0998;;;;
2022/03/15 05:34:04;;;;;;;7;4.8;;;;;;;6.48;60.23926;946.132;;;;
2022/03/15 05:36:31;;;;;;;18.6;11;;;;;;;6.53;59.89648;946.2114;;;;
2022/03/15 05:39:01;;;;;;;9.2;6.2;;;;;;;6.48;61.81152;946.1384;;;;
2022/03/15 05:41:30;;;;;;;12.6;6.7;;;;;;;6.52;61.4209;946.2205;;;;
2022/03/15 05:43:55;;;;;;;12.5;5.9;;;;;;;6.65;61.31738;946.1616;;;;
2022/03/15 05:46:22;;;;;;;11.1;6.9;;;;;;;6.82;60.72949;946.1911;;;;
2022/03/15 05:48:47;;;;;;;12.8;6.7;;;;;;;6.92;60.42676;946.2087;;;;
2022/03/15 05:51:15;;;;;;;13.5;6.9;;;;;;;7.01;60.7793;946.2676;;;;
2022/03/15 05:53:40;;;;;;;13;6.4;;;;;;;6.97;60.21777;946.2136;;;;
2022/03/15 05:56:08;;;;;;;16.2;6.1;;;;;;;6.98;60.20801;946.2639;;;;
2022/03/15 05:58:33;;;;;;;9.7;5.4;;;;;;;7.04;60.22754;946.3132;;;;
2022/03/15 06:01:00;;;;;;;14;5.6;;;;;;;7.08;59.7002;946.3072;;;;
2022/03/15 06:03:26;;;;;;;19.5;6.2;;;;;;;7.1;59.35156;946.3373;;;;
2022/03/15 06:05:54;;;;;;;22.2;6.4;;;;;;;7.18;59.03613;946.2644;;;;
2022/03/15 06:08:18;;;;;;;17.5;6.5;;;;;;;7.31;58.27148;946.3322;;;;
2022/03/15 06:10:48;;;;;;;15;6.2;;;;;;;7.3;59.07422;946.3986;;;;
2022/03/15 06:13:17;;;;;;;9.9;5.2;;;;;;;7.42;59.36426;946.4038;;;;
2022/03/15 06:15:46;;;;;;;11.5;5.3;;;;;;;7.43;58.62891;946.3306;;;;
2022/03/15 06:18:14;;;;;;;9.6;4.6;;;;;;;7.51;58.08301;946.2776;;;;
2022/03/15 06:20:44;;;;;;;10.2;5.6;;;;;;;7.41;61.37793;946.1843;;;;
2022/03/15 06:23:09;;;;;;;13.3;5.5;;;;;;;7.38;60.78516;946.2419;;;;
2022/03/15 06:25:39;;;;;;;13.1;5.9;;;;;;;7.52;59.36621;946.1696;;;;
2022/03/15 06:28:12;;;;;;;13.5;4.9;;;;;;;7.61;59.01465;946.2175;;;;
2022/03/15 06:30:44;;;;;;;13.8;4.7;;;;;;;7.6;58.75391;946.2031;;;;
2022/03/15 06:33:08;;;;;;;25.9;6.4;;;;;;;7.58;60.80273;946.2101;;;;
2022/03/15 06:35:38;;;;;;;11.9;5.8;;;;;;;7.43;59.59082;946.2756;;;;
2022/03/15 06:38:08;;;;;;;13.2;5.4;;;;;;;7.53;60.20508;946.2949;;;;
2022/03/15 06:40:33;;;;;;;13.7;5.9;;;;;;;7.72;59.50781;946.2834;;;;
2022/03/15 06:43:01;;;;;;;13.2;5.6;;;;;;;7.86;58.35742;946.2675;;;;
2022/03/15 06:45:25;;;;;;;19.5;6.3;;;;;;;8.1;57.88965;946.2842;;;;
2022/03/15 06:47:51;;;;;;;17.8;5.9;;;;;;;8.16;59.22852;946.2156;;;;
2022/03/15 06:50:16;;;;;;;15.3;6.3;;;;;;;8.15;59.87305;946.2971;;;;
2022/03/15 06:52:41;;;;;;;21.3;7;;;;;;;8.29;58.55273;946.288;;;;
2022/03/15 06:55:06;;;;;;;14.7;6.2;;;;;;;8.4;56.46387;946.275;;;;
2022/03/15 06:57:36;;;;;;;17.3;7;;;;;;;8.45;56.76758;946.2008;;;;
2022/03/15 07:00:01;;;;;;;19.6;7.3;;;;;;;8.63;56.50684;946.3413;;;;
2022/03/15 07:02:30;;;;;;;14.1;6.3;;;;;;;8.76;55.87598;946.3364;;;;
2022/03/15 07:04:55;;;;;;;15.1;6.3;;;;;;;8.63;55.96191;946.3264;;;;
2022/03/15 07:07:24;;;;;;;20.2;7;;;;;;;8.53;56.06152;946.3022;;;;
2022/03/15 07:10:20;;;;;;;15.4;7.1;;;;;;;8.64;55.50879;946.2988;;;;
2022/03/15 07:12:44;;;;;;;24;8.4;;;;;;;8.71;55.91309;946.3602;;;;
2022/03/15 07:15:12;;;;;;;17.8;8.4;;;;;;;8.78;57.07227;946.3401;;;;
2022/03/15 07:17:36;;;;;;;19.1;9;;;;;;;8.91;56.27051;946.3855;;;;
2022/03/15 07:20:02;;;;;;;16.8;8.2;;;;;;;8.96;55.91309;946.3489;;;;
2022/03/15 07:22:31;;;;;;;18.4;8.3;;;;;;;9.05;55.59473;946.2651;;;;
2022/03/15 07:24:56;;;;;;;15.9;7.7;;;;;;;9.1;54.47559;946.3015;;;;
2022/03/15 07:27:22;;;;;;;24.7;7.7;;;;;;;9.22;54.06934;946.2375;;;;
2022/03/15 07:29:47;;;;;;;23.6;8.9;;;;;;;9.29;54.76074;946.4222;;;;
2022/03/15 07:32:17;;;;;;;26.5;8;;;;;;;9.35;55.47266;946.3823;;;;
2022/03/15 07:34:42;;;;;;;23;8.1;;;;;;;9.45;53.8125;946.3393;;;;
2022/03/15 07:37:11;;;;;;;19.4;7.2;;;;;;;9.43;54.94922;946.3753;;;;
2022/03/15 07:39:39;;;;;;;26.9;13.5;;;;;;;9.5;55.86816;946.3039;;;;
2022/03/15 07:42:04;;;;;;;40.2;22.8;;;;;;;9.56;55.37695;946.3438;;;;
2022/03/15 07:44:29;;;;;;;32.2;18.3;;;;;;;9.71;55.00781;946.2389;;;;
2022/03/15 07:46:55;;;;;;;31.2;13.9;;;;;;;9.59;55.40332;946.4114;;;;
2022/03/15 07:49:23;;;;;;;25.6;10.1;;;;;;;9.65;55.19238;946.3859;;;;
2022/03/15 07:51:48;;;;;;;17.6;9.4;;;;;;;9.75;55.84473;946.3704;;;;
2022/03/15 07:54:15;;;;;;;16;7.6;;;;;;;9.86;54.52441;946.3113;;;;
2022/03/15 07:56:40;;;;;;;12.3;6.8;;;;;;;9.86;55.08301;946.3265;;;;
2022/03/15 07:59:07;;;;;;;12.4;6.2;;;;;;;9.98;54.63086;946.2968;;;;
2022/03/15 08:01:52;;;;;;;10.5;5.6;;;;;;;10.2;53.86035;946.296;;;;
2022/03/15 08:04:21;;;;;;;11.1;6.2;;;;;;;10.44;53.01172;946.2866;;;;
2022/03/15 08:06:46;;;;;;;11.4;6;;;;;;;10.62;51.87988;946.2581;;;;
2022/03/15 08:09:15;;;;;;;8.5;5;;;;;;;10.49;50.68945;946.2536;;;;
2022/03/15 08:11:41;;;;;;;9;4.5;;;;;;;10.46;49.69141;946.2153;;;;
2022/03/15 08:14:07;;;;;;;11.9;4.9;;;;;;;10.62;48.66016;946.1523;;;;
2022/03/15 08:16:34;;;;;;;13.4;4.9;;;;;;;10.83;49.91797;946.087;;;;
2022/03/15 08:19:05;;;;;;;11.1;4.5;;;;;;;10.83;49.03809;946.1252;;;;
2022/03/15 08:21:36;;;;;;;15.6;4.6;;;;;;;10.87;47.81934;946.0161;;;;
2022/03/15 08:23:59;;;;;;;17.1;4.7;;;;;;;11;47.67383;946.0435;;;;
2022/03/15 08:26:27;;;;;;;9.9;3.6;;;;;;;11.13;45.02441;946.0256;;;;
2022/03/15 08:28:53;;;;;;;9.5;3.5;;;;;;;11.34;45.6748;945.9342;;;;
2022/03/15 08:31:22;;;;;;;11.5;3.7;;;;;;;11.66;45.2041;945.88;;;;
2022/03/15 08:33:47;;;;;;;7.7;3.3;;;;;;;11.8;43.66211;945.865;;;;
2022/03/15 08:36:14;;;;;;;5.9;2.7;;;;;;;12.02;41.58789;945.8812;;;;
2022/03/15 08:38:39;;;;;;;4.5;2.3;;;;;;;12.2;41.57129;945.8362;;;;
2022/03/15 08:41:06;;;;;;;10.2;3.5;;;;;;;12.38;42.27637;945.8664;;;;
2022/03/15 08:43:31;;;;;;;12.1;4;;;;;;;12.47;41.66602;945.7817;;;;
2022/03/15 08:45:59;;;;;;;5.9;3.2;;;;;;;12.52;42.53027;945.7727;;;;
2022/03/15 08:48:24;;;;;;;8.7;3;;;;;;;12.52;42.18652;945.7608;;;;
2022/03/15 08:50:49;;;;;;;15.1;3.9;;;;;;;12.6;42.00977;945.7634;;;;
2022/03/15 08:53:15;;;;;;;10.5;3.5;;;;;;;12.7;41.05664;945.7148;;;;
2022/03/15 08:55:42;;;;;;;12.5;3.6;;;;;;;12.84;43.56055;945.7104;;;;
2022/03/15 08:58:07;;;;;;;7.3;3;;;;;;;12.95;43.68652;945.699;;;;
2022/03/15 09:00:33;;;;;;;16.8;4.4;;;;;;;13.08;43.58496;945.6642;;;;
2022/03/15 09:02:58;;;;;;;15.7;6.2;;;;;;;13.08;43.49316;945.6314;;;;
2022/03/15 09:05:25;;;;;;;15.4;6.6;;;;;;;13.14;43.41797;945.6592;;;;
2022/03/15 09:07:53;;;;;;;12.7;6.6;;;;;;;13.15;43.86621;945.6361;;;;
2022/03/15 09:10:14;;;;;;;13.3;5.7;;;;;;;13.25;43.98047;945.6467;;;;
2022/03/15 09:12:40;;;;;;;11.5;4.8;;;;;;;13.28;42.06445;945.6661;;;;
2022/03/15 09:15:05;;;;;;;11.3;4.4;;;;;;;13.31;43.24023;945.5745;;;;
2022/03/15 09:17:30;;;;;;;9.5;4.5;;;;;;;13.4;42.33008;945.5203;;;;
2022/03/15 09:19:59;;;;;;;8.8;4.4;;;;;;;13.48;43.2002;945.571;;;;
2022/03/15 09:22:24;;;;;;;11.2;4.8;;;;;;;13.54;42.28516;945.546;;;;
2022/03/15 09:24:52;;;;;;;16.7;5.8;;;;;;;13.56;41.91895;945.5349;;;;
2022/03/15 09:27:18;;;;;;;10.2;5.5;;;;;;;13.6;42.40625;945.5048;;;;
2022/03/15 09:29:45;;;;;;;10.1;5.5;;;;;;;13.7;43.68066;945.4756;;;;
2022/03/15 09:32:10;;;;;;;12.9;5.8;;;;;;;13.87;42.67383;945.3982;;;;
2022/03/15 09:34:39;;;;;;;9.7;5.1;;;;;;;14.01;42.43457;945.5129;;;;
2022/03/15 09:37:08;;;;;;;10.5;5.1;;;;;;;14.19;41.47363;945.5115;;;;
2022/03/15 09:39:33;;;;;;;8.8;4.6;;;;;;;14.32;41.20898;945.6336;;;;
2022/03/15 09:41:58;;;;;;;8.2;4.4;;;;;;;14.37;41.12207;945.6019;;;;
2022/03/15 09:44:27;;;;;;;11;4.2;;;;;;;14.23;41.09668;945.5849;;;;
2022/03/15 09:46:55;;;;;;;7.3;4.6;;;;;;;13.99;41.8457;945.5184;;;;
2022/03/15 09:49:21;;;;;;;10.5;4.5;;;;;;;13.85;42.04004;945.5542;;;;
2022/03/15 09:51:45;;;;;;;10;4.8;;;;;;;13.99;42.34082;945.6082;;;;
2022/03/15 09:54:12;;;;;;;11.6;4.9;;;;;;;14.01;42.72266;945.5619;;;;
2022/03/15 09:56:38;;;;;;;10;5.6;;;;;;;14.22;41.9834;945.6066;;;;
2022/03/15 09:59:01;;;;;;;10.3;4.7;;;;;;;14.31;42.36035;945.5246;;;;
2022/03/15 10:01:26;;;;;;;7;4.5;;;;;;;14.34;41.14258;945.459;;;;
2022/03/15 10:03:51;;;;;;;11;4.6;;;;;;;14.35;40.17578;945.4431;;;;
2022/03/15 10:06:21;;;;;;;7.9;4.2;;;;;;;14.31;39.84961;945.4044;;;;
2022/03/15 10:08:45;;;;;;;7;3.7;;;;;;;14.18;39.56055;945.332;;;;
2022/03/15 10:11:14;;;;;;;7.2;3.8;;;;;;;13.95;40.33398;945.2795;;;;
2022/03/15 10:13:38;;;;;;;7.1;3.8;;;;;;;13.96;40.94531;945.3797;;;;
2022/03/15 10:16:15;;;;;;;9.3;4.7;;;;;;;13.83;41.3125;945.3234;;;;
2022/03/15 10:18:41;;;;;;;5.3;3.8;;;;;;;13.78;39.99707;945.1931;;;;
2022/03/15 10:21:12;;;;;;;8;3.5;;;;;;;13.9;39.92773;945.2751;;;;
2022/03/15 10:23:44;;;;;;;4.9;3.2;;;;;;;13.71;39.58789;945.2548;;;;
2022/03/15 10:26:15;;;;;;;6.5;3.4;;;;;;;14.03;38.5918;945.1764;;;;
2022/03/15 10:28:47;;;;;;;7;3.5;;;;;;;14.15;38.92578;945.194;;;;
2022/03/15 10:31:09;;;;;;;770.3;287;;;;;;;14.2;41.95801;945.1135;;;;
2022/03/15 10:33:34;;;;;;;154.8;51.4;;;;;;;14.31;41.96875;945.1592;;;;
2022/03/15 10:36:03;;;;;;;4.3;3.1;;;;;;;14.23;38.93262;945.0018;;;;
2022/03/15 10:38:28;;;;;;;6.8;3.2;;;;;;;13.99;39.5332;945.1421;;;;
2022/03/15 10:40:55;;;;;;;4.4;3.2;;;;;;;13.95;39.54004;945.1675;;;;
2022/03/15 10:43:24;;;;;;;5.5;3.3;;;;;;;13.97;40.20898;945.1516;;;;
2022/03/15 10:45:50;;;;;;;3.8;2.6;;;;;;;14.07;39.74707;945.0997;;;;
2022/03/15 10:48:17;;;;;;;5.1;2.9;;;;;;;13.98;40.17676;945.1445;;;;
2022/03/15 10:50:41;;;;;;;6;3.2;;;;;;;13.86;40.2334;945.1964;;;;
2022/03/15 10:53:06;;;;;;;6.5;3.2;;;;;;;13.73;40.17578;945.0958;;;;
2022/03/15 10:55:34;;;;;;;8.5;3.5;;;;;;;13.59;41.00195;945.0519;;;;
2022/03/15 10:57:59;;;;;;;5.6;3.4;;;;;;;13.75;41.0752;945.0151;;;;
2022/03/15 11:00:28;;;;;;;6.2;3.5;;;;;;;14;40.58105;944.9821;;;;
2022/03/15 11:02:53;;;;;;;5.5;3.3;;;;;;;14.16;39.91602;945.001;;;;
2022/03/15 11:05:18;;;;;;;7;3.2;;;;;;;14.36;39.72656;944.992;;;;
2022/03/15 11:07:48;;;;;;;5;3.3;;;;;;;14.4;39.9043;945.0076;;;;
2022/03/15 11:10:12;;;;;;;5.2;2.8;;;;;;;14.21;39.5166;945.0717;;;;
2022/03/15 11:12:43;;;;;;;3.1;2.5;;;;;;;14.38;39.07227;944.981;;;;
2022/03/15 11:15:06;;;;;;;3.9;2.4;;;;;;;14.4;40.22656;944.9908;;;;
2022/03/15 11:17:33;;;;;;;5;2.4;;;;;;;14.38;39.98242;944.985;;;;
2022/03/15 11:20:03;;;;;;;4.5;2;;;;;;;14.38;39.87891;944.9377;;;;
2022/03/15 11:22:27;;;;;;;4.4;2;;;;;;;14.5;40.69727;944.9799;;;;
2022/03/15 11:24:54;;;;;;;3.9;2;;;;;;;14.4;40.28418;944.8889;;;;
2022/03/15 11:27:19;;;;;;;6.9;2.1;;;;;;;14.4;40.57227;944.8986;;;;
2022/03/15 11:29:44;;;;;;;4.8;2.1;;;;;;;14.18;41.0459;944.9042;;;;
2022/03/15 11:32:09;;;;;;;3.6;2;;;;;;;14.27;40.54785;944.7905;;;;
2022/03/15 11:34:35;;;;;;;2.3;2.1;;;;;;;14.15;41.19434;944.7559;;;;
2022/03/15 11:37:02;;;;;;;2.2;2;;;;;;;14.2;41.40527;944.7498;;;;
2022/03/15 11:39:27;;;;;;;3.9;2.2;;;;;;;14.22;41.2002;944.7004;;;;
2022/03/15 11:41:54;;;;;;;2.8;2.3;;;;;;;14.23;41.31543;944.6877;;;;
2022/03/15 11:44:19;;;;;;;2.4;2;;;;;;;14.17;41.45996;944.5974;;;;
2022/03/15 11:46:46;;;;;;;4.2;2.4;;;;;;;14.15;42.45996;944.6149;;;;
2022/03/15 11:49:12;;;;;;;2.4;2.2;;;;;;;13.93;42.94434;944.6044;;;;
2022/03/15 11:51:38;;;;;;;2.9;2;;;;;;;14.07;43.66113;944.6264;;;;
2022/03/15 11:54:06;;;;;;;4.1;2.3;;;;;;;14.17;42.2207;944.6078;;;;
2022/03/15 11:56:31;;;;;;;2.8;2.1;;;;;;;14.19;42.65918;944.5927;;;;
2022/03/15 11:58:56;;;;;;;2.9;2.4;;;;;;;14.12;43.32031;944.5154;;;;
2022/03/15 12:01:24;;;;;;;3.1;2.2;;;;;;;14.09;44.06543;944.5401;;;;
2022/03/15 12:03:51;;;;;;;3.6;2.3;;;;;;;14.04;44.61328;944.5582;;;;
2022/03/15 12:06:15;;;;;;;2.2;2;;;;;;;13.97;43.91602;944.5006;;;;
2022/03/15 12:08:43;;;;;;;2.7;2.2;;;;;;;13.7;46.07422;944.5089;;;;
2022/03/15 12:11:08;;;;;;;4.2;2.1;;;;;;;13.63;45.35352;944.4252;;;;
2022/03/15 12:13:33;;;;;;;4.5;2.3;;;;;;;13.7;46.49805;944.4456;;;;
2022/03/15 12:16:09;;;;;;;2.6;2.1;;;;;;;13.76;46.49316;944.4316;;;;
2022/03/15 12:18:33;;;;;;;3.6;2.3;;;;;;;13.9;46.49609;944.4441;;;;
2022/03/15 12:21:01;;;;;;;6;2.7;;;;;;;13.91;48.34961;944.2896;;;;
2022/03/15 12:23:28;;;;;;;4.2;2.7;;;;;;;13.92;45.50977;944.3401;;;;
2022/03/15 12:25:58;;;;;;;4.6;2.5;;;;;;;13.95;43.22363;944.2907;;;;
2022/03/15 12:28:23;;;;;;;4.2;2.7;;;;;;;14.05;43.43945;944.1883;;;;
2022/03/15 12:30:50;;;;;;;6.4;2.8;;;;;;;14.14;43.77148;944.1872;;;;
2022/03/15 12:33:14;;;;;;;11.1;3.6;;;;;;;14.28;45.5127;944.2106;;;;
2022/03/15 12:35:39;;;;;;;5.8;2.8;;;;;;;14.25;45.15332;944.168;;;;
2022/03/15 12:38:05;;;;;;;7;3.8;;;;;;;14.25;43.875;944.1359;;;;
2022/03/15 12:40:31;;;;;;;9.5;4.2;;;;;;;14.25;44.57617;944.0838;;;;
2022/03/15 12:43:01;;;;;;;4.5;2.9;;;;;;;14.22;45.54199;943.9572;;;;
2022/03/15 12:45:23;;;;;;;3.8;3;;;;;;;14.13;47.67383;943.8139;;;;
2022/03/15 12:47:51;;;;;;;9.3;3.9;;;;;;;13.96;47.87402;943.7751;;;;
2022/03/15 12:50:15;;;;;;;11.3;4.4;;;;;;;14.05;45.44238;943.7214;;;;
2022/03/15 12:52:40;;;;;;;14.7;5.2;;;;;;;14.08;44.91699;943.76;;;;
2022/03/15 12:55:11;;;;;;;11.1;5;;;;;;;14.03;44.86523;943.69;;;;
2022/03/15 12:57:37;;;;;;;8.3;5.4;;;;;;;13.73;44.21191;943.5798;;;;
2022/03/15 13:00:03;;;;;;;9.4;4.6;;;;;;;13.66;44.86133;943.6066;;;;
2022/03/15 13:02:27;;;;;;;8.6;3.8;;;;;;;13.54;45.25195;943.7;;;;
2022/03/15 13:04:56;;;;;;;6.1;3.4;;;;;;;13.53;44.67676;943.6575;;;;
2022/03/15 13:07:21;;;;;;;7.4;3.7;;;;;;;13.33;46.10352;943.5302;;;;
2022/03/15 13:09:50;;;;;;;7.6;3.5;;;;;;;13.53;46.44629;943.5615;;;;
2022/03/15 13:12:15;;;;;;;4.9;2.8;;;;;;;13.68;44.3457;943.5563;;;;
2022/03/15 13:14:46;;;;;;;10.3;3.8;;;;;;;13.72;44.61523;943.4492;;;;
2022/03/15 13:17:09;;;;;;;7.2;3.2;;;;;;;13.92;46.1543;943.3602;;;;
2022/03/15 13:19:35;;;;;;;19.5;4.1;;;;;;;14.03;44.32422;943.3633;;;;
2022/03/15 13:22:02;;;;;;;9;3.8;;;;;;;14.09;43.83691;943.2803;;;;
2022/03/15 13:24:27;;;;;;;8.9;3.4;;;;;;;14;43.91895;943.1876;;;;
2022/03/15 13:26:55;;;;;;;7.7;3.2;;;;;;;13.97;43.70898;943.1346;;;;
2022/03/15 13:29:21;;;;;;;6;3.4;;;;;;;13.73;45.30566;943.1147;;;;
2022/03/15 13:31:49;;;;;;;11.7;5;;;;;;;13.92;44.95703;943.0975;;;;
2022/03/15 13:34:14;;;;;;;24;8.5;;;;;;;14.09;45.16016;943.0689;;;;
2022/03/15 13:36:45;;;;;;;9.9;4.7;;;;;;;14.13;44.95605;943.0218;;;;
2022/03/15 13:39:07;;;;;;;9.6;5;;;;;;;14.13;43.78125;942.9713;;;;
2022/03/15 13:41:40;;;;;;;6.6;3.1;;;;;;;13.88;45.66699;942.9517;;;;
2022/03/15 13:43:59;;;;;;;4.7;2.4;;;;;;;13.93;43.7373;942.9222;;;;
2022/03/15 13:46:23;;;;;;;5.9;2.9;;;;;;;13.99;44.25195;942.9457;;;;
2022/03/15 13:48:53;;;;;;;8.7;3.5;;;;;;;14.13;43.80469;942.9369;;;;
2022/03/15 13:51:22;;;;;;;7.3;3.4;;;;;;;14.21;43.28223;942.9651;;;;
2022/03/15 13:53:46;;;;;;;5.8;3.1;;;;;;;14.3;43.67188;942.9817;;;;
2022/03/15 13:56:13;;;;;;;8.4;3.3;;;;;;;14.38;43.58789;943.0589;;;;
2022/03/15 13:58:41;;;;;;;9.7;4.9;;;;;;;14.26;43.875;943.0753;;;;
2022/03/15 14:01:04;;;;;;;13.2;3.6;;;;;;;14.3;44.29395;943.0826;;;;
2022/03/15 14:03:34;;;;;;;6.4;2.5;;;;;;;14.21;43.08691;943.1125;;;;
2022/03/15 14:06:02;;;;;;;7.1;2.6;;;;;;;14.2;43.71973;943.0861;;;;
2022/03/15 14:08:27;;;;;;;4.8;2.7;;;;;;;14.23;43.34375;943.0737;;;;
2022/03/15 14:10:56;;;;;;;3.4;2.4;;;;;;;14.27;43.20801;943.0522;;;;
2022/03/15 14:13:29;;;;;;;7.7;2.7;;;;;;;14.17;45.24805;943.1805;;;;
2022/03/15 14:15:59;;;;;;;7.1;3;;;;;;;13.97;45.19336;943.1138;;;;
2022/03/15 14:18:26;;;;;;;11.5;3.8;;;;;;;14.01;46.20996;943.0875;;;;
2022/03/15 14:20:51;;;;;;;6.7;3.1;;;;;;;13.92;46.71777;943.0935;;;;
2022/03/15 14:23:18;;;;;;;8.7;3.5;;;;;;;13.79;47.85352;943.2216;;;;
2022/03/15 14:25:44;;;;;;;7.7;3.4;;;;;;;13.91;47.94824;943.168;;;;
2022/03/15 14:28:12;;;;;;;7;3.7;;;;;;;13.89;48.77441;943.0767;;;;
2022/03/15 14:30:38;;;;;;;7.9;3.7;;;;;;;13.88;48.34668;943.1071;;;;
2022/03/15 14:33:02;;;;;;;7.5;4.3;;;;;;;13.76;50.05957;943.1476;;;;
2022/03/15 14:35:30;;;;;;;6.2;3.6;;;;;;;13.83;50.59668;943.1172;;;;
2022/03/15 14:37:55;;;;;;;7.6;3.8;;;;;;;13.58;50.14355;942.9808;;;;
2022/03/15 14:40:20;;;;;;;4.4;2.9;;;;;;;13.34;49.9082;942.9008;;;;
2022/03/15 14:42:53;;;;;;;8.3;2.7;;;;;;;13.3;47.39941;942.8725;;;;
2022/03/15 14:45:12;;;;;;;11.5;3.3;;;;;;;13.36;47.71582;942.8353;;;;